Terminal Aerodrome Forecast
Issued by NWS Twin Cities, MN

Home | Current Version | Previous Version | Text Only | Print | Product List | Glossary On
Versions: 1 2 3 4 5 6 7 8 9 10 11 12 13 14
183
FTUS43 KMPX 200520
TAFEAU
TAF
KEAU 200520Z 2006/2106 07009KT P6SM OVC080
     FM201600 07009KT 6SM -RA BR SCT020 OVC040
     FM201900 08012G19KT 4SM RA BR SCT010 OVC020
     FM202200 09012G19KT 3SM RA BR OVC007
     FM210100 12008KT 2SM -DZ BR OVC005=

USA.gov is the U.S. government's official web portal to all federal, state and local government web resources and services.